Terminal Aerodrome Forecast
Issued by NWS

Home | Current Version | Previous Version | Text Only | Print | Product List | Glossary On
Versions: 1 2 3 4 5 6 7 8 9 10 11 12 13
104
FTUS45 KRIW 061317 AAA
TAFRKS
TAF AMD
KRKS 061317Z 0613/0712 26024G30KT P6SM FEW016
     FM061900 26025G32KT P6SM FEW050 BKN200
     FM070400 26020G28KT P6SM SCT025=

USA.gov is the U.S. government's official web portal to all federal, state and local government web resources and services.